Terminal Aerodrome Forecast
Issued by NWS Memphis, TN

Home | Current Version | Previous Version | Text Only | Print | Product List | Glossary On
Versions: 1 2 3 4 5 6 7 8 9 10 11 12 13
931
FTUS44 KMEG 271730
TAFJBR
TAF
KJBR 271730Z 2718/2818 12006KT P6SM VCTS BKN045CB
      TEMPO 2720/2723 4SM -TSRA BKN025CB
     FM280100 VRB04KT 6SM BR VCTS BKN035CB
     FM281200 VRB04KT 5SM BR OVC020=

USA.gov is the U.S. government's official web portal to all federal, state and local government web resources and services.